createdAt,value
2022-10-13T00:01:18.332Z,2.60
2022-10-13T00:03:47.442Z,3.00
2022-10-13T00:06:22.949Z,3.40
2022-10-13T00:08:51.268Z,4.40
2022-10-13T00:11:20.427Z,2.20
2022-10-13T00:13:49.288Z,1.40
2022-10-13T00:16:20.096Z,1.00
2022-10-13T00:18:48.419Z,1.40
2022-10-13T00:21:18.845Z,1.80
2022-10-13T00:23:48.663Z,3.00
2022-10-13T00:26:21.320Z,3.60
2022-10-13T00:28:52.509Z,2.60
2022-10-13T00:31:25.153Z,1.00
2022-10-13T00:33:53.316Z,2.80
2022-10-13T00:36:23.151Z,3.00
2022-10-13T00:38:51.968Z,2.20
2022-10-13T00:41:20.432Z,0.00
2022-10-13T00:43:51.315Z,1.00
2022-10-13T00:46:20.581Z,0.80
2022-10-13T00:48:57.111Z,3.40
2022-10-13T00:51:29.436Z,2.20
2022-10-13T00:53:58.881Z,3.40
2022-10-13T00:56:28.191Z,4.40
2022-10-13T00:58:56.614Z,1.80
2022-10-13T01:01:24.288Z,2.20
2022-10-13T01:03:52.476Z,3.00
2022-10-13T01:06:23.646Z,4.20
2022-10-13T01:08:51.937Z,4.00
2022-10-13T01:11:47.640Z,4.00
2022-10-13T01:14:43.434Z,4.00
2022-10-13T01:17:16.761Z,4.00
2022-10-13T01:20:19.098Z,4.00
2022-10-13T01:23:02.199Z,4.80
2022-10-13T01:25:38.441Z,3.60
2022-10-13T01:28:25.023Z,4.00
2022-10-13T01:31:03.857Z,3.00
2022-10-13T01:33:38.030Z,3.00
2022-10-13T01:36:16.319Z,3.80
2022-10-13T01:39:15.439Z,4.00
2022-10-13T01:41:49.959Z,3.60
2022-10-13T01:44:41.377Z,3.20
2022-10-13T01:47:43.785Z,4.00
2022-10-13T01:50:12.090Z,5.60
2022-10-13T01:52:40.178Z,4.00
2022-10-13T01:55:10.705Z,1.00
2022-10-13T01:57:44.187Z,3.60
2022-10-13T02:00:15.293Z,3.60
2022-10-13T02:02:51.230Z,4.00
2022-10-13T02:05:40.310Z,4.40
2022-10-13T02:08:36.279Z,7.80
2022-10-13T02:11:13.358Z,4.00
2022-10-13T02:13:54.381Z,2.60
2022-10-13T02:16:23.959Z,4.00
2022-10-13T02:18:52.656Z,4.00
2022-10-13T02:21:20.056Z,3.20
2022-10-13T02:23:47.528Z,5.60
2022-10-13T02:26:14.953Z,7.00
2022-10-13T02:28:42.779Z,6.00
2022-10-13T02:31:10.546Z,6.00
2022-10-13T02:33:38.056Z,3.80
2022-10-13T02:36:06.014Z,6.60
2022-10-13T02:38:33.501Z,3.40
2022-10-13T02:41:03.032Z,3.60
2022-10-13T02:43:30.657Z,4.40
2022-10-13T02:45:58.167Z,4.80
2022-10-13T02:48:25.769Z,5.60
2022-10-13T02:50:53.967Z,5.20
2022-10-13T02:53:21.531Z,7.00
2022-10-13T02:55:48.981Z,4.60
2022-10-13T02:58:16.763Z,4.00
2022-10-13T03:00:44.316Z,4.40
2022-10-13T03:03:12.576Z,5.40
2022-10-13T03:05:41.382Z,3.00
2022-10-13T03:08:09.241Z,6.00
2022-10-13T03:10:36.606Z,3.40
2022-10-13T03:13:04.193Z,5.60
2022-10-13T03:15:31.636Z,3.00
2022-10-13T03:17:59.799Z,6.00
2022-10-13T03:20:27.356Z,3.80
2022-10-13T03:22:54.614Z,3.40
2022-10-13T03:25:22.010Z,4.80
2022-10-13T03:27:52.745Z,0.60
2022-10-13T03:30:20.136Z,1.00
2022-10-13T03:32:47.464Z,6.00
2022-10-13T03:35:14.857Z,4.00
2022-10-13T03:37:42.081Z,3.00
2022-10-13T03:40:10.266Z,1.00
2022-10-13T03:42:38.261Z,1.80
2022-10-13T03:45:07.016Z,0.80
2022-10-13T03:47:36.722Z,4.00
2022-10-13T03:50:05.692Z,3.60
2022-10-13T03:52:33.428Z,3.80
2022-10-13T03:55:01.231Z,4.00
2022-10-13T03:57:28.691Z,4.80
2022-10-13T03:59:57.643Z,4.20
2022-10-13T04:02:27.582Z,3.20
2022-10-13T04:04:55.132Z,3.80
2022-10-13T04:07:22.327Z,4.80
2022-10-13T04:09:49.578Z,6.60
2022-10-13T04:15:12.229Z,5.20
2022-10-13T04:17:40.016Z,2.60
2022-10-13T04:20:08.616Z,1.80
2022-10-13T04:22:36.218Z,1.20
2022-10-13T04:25:03.917Z,8.60
2022-10-13T04:27:32.903Z,4.40
2022-10-13T04:30:00.489Z,3.80
2022-10-13T04:32:28.279Z,3.00
2022-10-13T04:34:56.001Z,4.00
2022-10-13T04:37:28.381Z,3.00
2022-10-13T04:39:55.957Z,3.00
2022-10-13T04:42:23.542Z,3.00
2022-10-13T04:44:51.160Z,4.80
2022-10-13T04:47:21.783Z,5.00
2022-10-13T04:49:49.420Z,3.20
2022-10-13T04:52:17.057Z,7.40
2022-10-13T04:54:46.798Z,3.20
2022-10-13T04:57:14.261Z,6.00
2022-10-13T04:59:41.923Z,3.00
2022-10-13T05:02:10.774Z,4.00
2022-10-13T05:04:38.418Z,6.00
2022-10-13T05:07:17.439Z,6.00
2022-10-13T05:09:51.117Z,4.80
2022-10-13T05:12:19.182Z,3.80
2022-10-13T05:14:47.241Z,3.80
2022-10-13T05:17:14.884Z,0.00
2022-10-13T05:19:42.581Z,3.00
2022-10-13T05:22:09.958Z,4.00
2022-10-13T05:24:38.985Z,3.40
2022-10-13T05:27:13.280Z,2.20
2022-10-13T05:29:41.544Z,4.00
2022-10-13T05:32:09.264Z,3.60
2022-10-13T05:34:37.198Z,5.20
2022-10-13T05:37:05.189Z,3.40
2022-10-13T05:39:34.264Z,5.20
2022-10-13T05:42:01.997Z,3.20
2022-10-13T05:44:30.440Z,4.00
2022-10-13T05:46:57.880Z,4.00
2022-10-13T05:49:25.722Z,4.20
2022-10-13T05:51:58.805Z,4.80
2022-10-13T05:54:47.127Z,2.00
2022-10-13T05:57:23.129Z,2.80
2022-10-13T06:00:04.427Z,5.00
2022-10-13T06:02:57.461Z,2.40
2022-10-13T06:05:27.837Z,4.60
2022-10-13T06:07:56.639Z,5.00
2022-10-13T06:10:25.056Z,3.40
2022-10-13T06:12:52.642Z,4.00
2022-10-13T06:15:23.315Z,3.00
2022-10-13T06:17:53.382Z,3.60
2022-10-13T06:20:20.835Z,3.00
2022-10-13T06:22:50.478Z,4.00
2022-10-13T06:25:18.143Z,3.40
2022-10-13T06:27:46.006Z,3.00
2022-10-13T06:30:13.795Z,3.20
2022-10-13T06:32:41.400Z,2.40
2022-10-13T06:35:10.342Z,1.50
2022-10-13T06:37:37.824Z,2.75
2022-10-13T06:40:05.955Z,2.00
2022-10-13T06:42:34.767Z,1.75
2022-10-13T06:45:10.054Z,1.00
2022-10-13T06:47:41.239Z,2.00
2022-10-13T06:50:09.122Z,1.00
2022-10-13T06:52:36.679Z,1.00
2022-10-13T06:55:05.279Z,1.00
2022-10-13T06:57:39.827Z,2.00
2022-10-13T07:00:08.662Z,2.25
2022-10-13T07:02:36.321Z,2.50
2022-10-13T07:05:04.202Z,1.00
2022-10-13T07:07:31.821Z,1.00
2022-10-13T07:09:59.458Z,1.75
2022-10-13T07:12:27.040Z,1.75
2022-10-13T07:14:54.643Z,1.00
2022-10-13T07:17:22.576Z,3.75
2022-10-13T07:19:51.445Z,2.25
2022-10-13T07:22:20.614Z,3.75
2022-10-13T07:24:48.275Z,3.50
2022-10-13T07:27:15.493Z,5.00
2022-10-13T07:29:42.861Z,5.00
2022-10-13T07:32:10.136Z,4.75
2022-10-13T07:34:37.543Z,3.75
2022-10-13T07:37:05.302Z,2.50
2022-10-13T07:39:32.762Z,2.75
2022-10-13T07:42:00.427Z,2.00
2022-10-13T07:44:27.810Z,1.00
2022-10-13T07:46:55.122Z,1.75
2022-10-13T07:49:23.104Z,2.75
2022-10-13T07:51:50.829Z,2.75
2022-10-13T07:54:23.710Z,3.75
2022-10-13T07:56:56.048Z,2.50
2022-10-13T07:59:24.431Z,1.25
2022-10-13T08:01:52.450Z,2.00
2022-10-13T08:04:20.417Z,1.00
2022-10-13T08:06:48.751Z,1.00
2022-10-13T08:09:16.878Z,0.25
2022-10-13T08:11:44.454Z,1.00
2022-10-13T08:14:13.906Z,1.00
2022-10-13T08:16:45.727Z,2.50
2022-10-13T08:19:20.542Z,3.00
2022-10-13T08:22:07.815Z,1.25
2022-10-13T08:24:37.160Z,2.00
2022-10-13T08:27:04.900Z,3.25
2022-10-13T08:29:36.457Z,0.50
2022-10-13T08:32:04.421Z,1.50
2022-10-13T08:34:32.014Z,3.00
2022-10-13T08:37:00.531Z,1.00
2022-10-13T08:39:28.175Z,0.00
2022-10-13T08:41:58.203Z,1.00
2022-10-13T08:45:15.741Z,0.75
2022-10-13T08:47:45.303Z,0.00
2022-10-13T08:50:20.945Z,0.00
2022-10-13T08:52:54.223Z,3.25
2022-10-13T08:55:30.978Z,2.50
2022-10-13T08:57:59.780Z,0.25
2022-10-13T09:00:29.215Z,1.00
2022-10-13T09:03:23.621Z,1.50
2022-10-13T09:06:01.373Z,1.75
2022-10-13T09:08:40.317Z,1.00
2022-10-13T09:11:10.199Z,6.00
2022-10-13T09:13:38.116Z,0.25
2022-10-13T09:16:06.087Z,3.50
2022-10-13T09:18:34.797Z,1.00
2022-10-13T09:21:25.140Z,1.00
2022-10-13T09:23:54.421Z,1.00
2022-10-13T09:26:25.299Z,1.25
2022-10-13T09:28:53.300Z,2.00
2022-10-13T09:31:32.497Z,3.00
2022-10-13T09:34:01.418Z,3.25
2022-10-13T09:36:29.637Z,4.75
2022-10-13T09:39:14.706Z,3.75
2022-10-13T09:41:45.430Z,4.40
2022-10-13T09:44:27.792Z,4.00
2022-10-13T09:47:04.271Z,4.40
2022-10-13T09:49:38.021Z,3.00
2022-10-13T09:52:14.595Z,4.00
2022-10-13T09:54:59.069Z,4.00
2022-10-13T09:57:36.017Z,4.20
2022-10-13T10:00:16.218Z,3.80
2022-10-13T10:02:49.860Z,3.00
2022-10-13T10:05:29.137Z,4.60
2022-10-13T10:08:28.940Z,5.50
2022-10-13T10:11:13.096Z,4.00
2022-10-13T10:13:40.873Z,3.00
2022-10-13T10:16:35.353Z,6.00
2022-10-13T10:19:27.833Z,5.25
2022-10-13T10:22:07.917Z,1.50
2022-10-13T10:24:45.284Z,1.50
2022-10-13T10:27:15.757Z,4.00
2022-10-13T10:30:00.834Z,3.00
2022-10-13T10:32:34.124Z,3.00
2022-10-13T10:35:14.937Z,1.50
2022-10-13T10:38:13.119Z,3.25
2022-10-13T10:40:47.276Z,3.00
2022-10-13T10:43:36.523Z,1.75
2022-10-13T10:46:20.493Z,3.00
2022-10-13T10:48:50.893Z,3.50
2022-10-13T10:51:19.920Z,2.25
2022-10-13T10:53:57.056Z,3.00
2022-10-13T10:56:42.862Z,3.00
2022-10-13T10:59:50.758Z,2.00
2022-10-13T11:02:35.437Z,2.00
2022-10-13T11:05:06.309Z,2.00
2022-10-13T11:07:34.262Z,3.00
2022-10-13T11:10:18.937Z,1.00
2022-10-13T11:13:05.996Z,2.00
2022-10-13T11:15:40.920Z,1.25
2022-10-13T11:18:45.942Z,4.00
2022-10-13T11:21:13.316Z,3.50
2022-10-13T11:23:48.990Z,3.25
2022-10-13T11:26:31.643Z,4.75
2022-10-13T11:29:00.012Z,5.00
2022-10-13T11:31:33.642Z,4.00
2022-10-13T11:34:04.590Z,3.00
2022-10-13T11:36:50.319Z,3.75
2022-10-13T11:39:41.473Z,4.00
2022-10-13T11:42:36.600Z,4.50
2022-10-13T11:45:28.274Z,2.25
2022-10-13T11:48:29.468Z,3.75
2022-10-13T11:51:16.522Z,5.75
2022-10-13T11:53:56.506Z,2.50
2022-10-13T11:56:39.585Z,3.00
2022-10-13T11:59:33.781Z,5.60
2022-10-13T12:02:19.279Z,4.00
2022-10-13T12:05:00.537Z,5.00
2022-10-13T12:07:35.271Z,2.60
2022-10-13T12:10:08.299Z,4.20
2022-10-13T12:12:35.841Z,4.40
2022-10-13T12:15:38.719Z,3.40
2022-10-13T12:18:22.600Z,4.00
2022-10-13T12:20:58.879Z,4.00
2022-10-13T12:23:27.990Z,3.80
2022-10-13T12:25:59.237Z,4.00
2022-10-13T12:28:44.998Z,4.80
2022-10-13T12:31:20.997Z,3.60
2022-10-13T12:34:00.003Z,4.00
2022-10-13T12:36:35.780Z,4.60
2022-10-13T12:39:12.062Z,4.25
2022-10-13T12:41:44.620Z,4.00
2022-10-13T12:44:25.758Z,4.00
2022-10-13T12:46:56.501Z,4.00
2022-10-13T12:49:27.983Z,4.00
2022-10-13T12:51:58.642Z,3.40
2022-10-13T12:54:32.297Z,4.60
2022-10-13T12:57:07.736Z,2.50
2022-10-13T12:59:43.141Z,2.75
2022-10-13T13:02:37.003Z,2.75
2022-10-13T13:05:24.723Z,3.50
2022-10-13T13:07:55.557Z,3.00
2022-10-13T13:10:23.118Z,6.60
2022-10-13T13:12:52.690Z,4.00
2022-10-13T13:15:32.021Z,3.80
2022-10-13T13:18:32.522Z,2.60
2022-10-13T13:21:02.256Z,2.60
2022-10-13T13:23:34.576Z,4.00
2022-10-13T13:26:08.231Z,3.00
2022-10-13T13:28:35.887Z,4.40
2022-10-13T13:31:04.145Z,2.40
2022-10-13T13:33:31.559Z,5.80
2022-10-13T13:35:59.297Z,6.00
2022-10-13T13:38:26.782Z,4.00
2022-10-13T13:40:54.037Z,2.00
2022-10-13T13:43:21.656Z,5.40
2022-10-13T13:45:49.052Z,3.40
2022-10-13T13:48:16.366Z,3.20
2022-10-13T13:50:43.869Z,4.00
2022-10-13T13:53:11.321Z,4.00
2022-10-13T13:55:38.638Z,4.60
2022-10-13T13:58:06.074Z,4.20
2022-10-13T14:00:34.160Z,3.60
2022-10-13T14:03:01.606Z,5.60
2022-10-13T14:05:28.964Z,5.00
2022-10-13T14:07:58.133Z,4.20
2022-10-13T14:10:26.942Z,3.20
2022-10-13T14:12:54.303Z,5.20
2022-10-13T14:15:23.412Z,7.00
2022-10-13T14:17:54.364Z,4.20
2022-10-13T14:20:22.358Z,3.60
2022-10-13T14:22:49.698Z,6.20
2022-10-13T14:25:17.224Z,5.00
2022-10-13T14:27:46.258Z,5.00
2022-10-13T14:30:14.336Z,4.20
2022-10-13T14:32:41.706Z,3.40
2022-10-13T14:35:09.546Z,5.60
2022-10-13T14:37:37.298Z,6.40
2022-10-13T14:40:05.392Z,6.00
2022-10-13T14:42:32.917Z,3.40
2022-10-13T14:45:00.483Z,4.20
2022-10-13T14:47:28.156Z,6.00
2022-10-13T14:49:55.811Z,6.80
2022-10-13T14:52:23.532Z,4.00
2022-10-13T14:54:54.149Z,5.00
2022-10-13T14:57:22.118Z,4.40
2022-10-13T14:59:49.761Z,5.60
2022-10-13T15:02:17.381Z,5.00
2022-10-13T15:04:58.236Z,2.40
2022-10-13T15:07:25.720Z,8.00
2022-10-13T15:10:04.351Z,1.00
2022-10-13T15:12:33.689Z,5.20
2022-10-13T15:15:01.122Z,5.60
2022-10-13T15:17:29.970Z,4.00
2022-10-13T15:19:57.476Z,4.20
2022-10-13T15:22:24.889Z,5.80
2022-10-13T15:24:52.209Z,8.00
2022-10-13T15:27:19.709Z,3.00
2022-10-13T15:29:47.038Z,6.80
2022-10-13T15:32:20.759Z,8.60
2022-10-13T15:34:55.143Z,9.60
2022-10-13T15:37:22.537Z,6.00
2022-10-13T15:39:53.303Z,5.20
2022-10-13T15:42:24.470Z,6.60
2022-10-13T15:45:08.671Z,6.00
2022-10-13T15:47:38.154Z,5.60
2022-10-13T15:50:05.725Z,6.80
2022-10-13T15:52:37.144Z,6.20
2022-10-13T15:55:04.899Z,6.00
2022-10-13T15:57:32.217Z,6.60
2022-10-13T15:59:59.657Z,8.00
2022-10-13T16:02:26.963Z,7.00
2022-10-13T16:04:54.632Z,6.00
2022-10-13T16:07:22.158Z,3.80
2022-10-13T16:09:49.486Z,6.00
2022-10-13T16:12:17.500Z,5.40
2022-10-13T16:14:45.106Z,4.00
2022-10-13T16:17:12.363Z,6.60
2022-10-13T16:19:39.833Z,5.80
2022-10-13T16:22:07.294Z,7.00
2022-10-13T16:24:34.841Z,6.80
2022-10-13T16:27:02.504Z,6.00
2022-10-13T16:29:30.305Z,6.00
2022-10-13T16:31:57.728Z,3.00
2022-10-13T16:34:25.122Z,7.00
2022-10-13T16:36:52.688Z,6.00
2022-10-13T16:39:20.369Z,5.60
2022-10-13T16:41:48.048Z,5.60
2022-10-13T16:44:17.014Z,8.20
2022-10-13T16:46:45.309Z,5.80
2022-10-13T16:49:13.111Z,8.00
2022-10-13T16:51:40.621Z,10.40
2022-10-13T16:54:09.201Z,8.20
2022-10-13T16:56:36.686Z,3.80
2022-10-13T16:59:06.498Z,7.40
2022-10-13T17:01:35.953Z,13.00
2022-10-13T17:04:04.902Z,11.60
2022-10-13T17:06:32.554Z,10.40
2022-10-13T17:09:03.526Z,7.80
2022-10-13T17:11:33.314Z,7.00
2022-10-13T17:14:01.954Z,6.00
2022-10-13T17:16:33.918Z,8.40
2022-10-13T17:19:01.415Z,10.40
2022-10-13T17:21:37.051Z,12.00
2022-10-13T17:24:06.715Z,8.00
2022-10-13T17:26:35.585Z,8.40
2022-10-13T17:29:02.939Z,11.20
2022-10-13T17:31:30.611Z,12.00
2022-10-13T17:33:59.550Z,6.60
2022-10-13T17:36:29.081Z,10.80
2022-10-13T17:39:02.091Z,9.40
2022-10-13T17:41:29.576Z,7.60
2022-10-13T17:43:57.106Z,6.60
2022-10-13T17:46:42.845Z,7.20
2022-10-13T17:49:12.378Z,10.40
2022-10-13T17:51:41.290Z,8.00
2022-10-13T17:54:14.640Z,11.00
2022-10-13T17:56:57.516Z,11.60
2022-10-13T17:59:24.862Z,7.00
2022-10-13T18:01:52.277Z,8.80
2022-10-13T18:04:19.855Z,10.40
2022-10-13T18:06:47.409Z,11.40
2022-10-13T18:09:17.912Z,8.80
2022-10-13T18:11:50.150Z,11.40
2022-10-13T18:14:24.065Z,10.20
2022-10-13T18:16:52.346Z,8.00
2022-10-13T18:19:20.891Z,9.40
2022-10-13T18:21:49.431Z,11.00
2022-10-13T18:24:16.718Z,8.20
2022-10-13T18:26:44.401Z,7.80
2022-10-13T18:29:12.652Z,6.20
2022-10-13T18:31:41.662Z,9.40
2022-10-13T18:34:17.197Z,10.20
2022-10-13T18:36:47.560Z,5.40
2022-10-13T18:39:18.101Z,9.20
2022-10-13T18:41:49.549Z,9.40
2022-10-13T18:44:17.078Z,7.40
2022-10-13T18:46:44.717Z,10.40
2022-10-13T18:49:14.753Z,5.20
2022-10-13T18:51:44.051Z,8.60
2022-10-13T18:54:12.158Z,4.40
2022-10-13T18:56:39.722Z,7.00
2022-10-13T18:59:09.037Z,6.20
2022-10-13T19:01:38.626Z,7.60
2022-10-13T19:04:06.819Z,6.00
2022-10-13T19:06:34.342Z,4.80
2022-10-13T19:09:06.859Z,10.40
2022-10-13T19:11:37.190Z,8.60
2022-10-13T19:14:07.159Z,9.80
2022-10-13T19:16:37.901Z,6.80
2022-10-13T19:19:05.723Z,6.40
2022-10-13T19:21:34.601Z,9.20
2022-10-13T19:24:02.239Z,9.00
2022-10-13T19:26:32.808Z,3.40
2022-10-13T19:29:13.927Z,12.00
2022-10-13T19:31:42.031Z,7.80
2022-10-13T19:34:11.436Z,9.60
2022-10-13T19:36:42.285Z,14.00
2022-10-13T19:39:16.986Z,10.00
2022-10-13T19:41:45.919Z,7.20
2022-10-13T19:44:14.033Z,9.80
2022-10-13T19:46:43.613Z,7.60
2022-10-13T19:49:12.626Z,6.00
2022-10-13T19:51:45.950Z,9.80
2022-10-13T19:54:14.019Z,8.00
2022-10-13T19:56:47.767Z,7.80
2022-10-13T19:59:16.095Z,6.60
2022-10-13T20:01:43.823Z,3.80
2022-10-13T20:04:18.224Z,6.80
2022-10-13T20:06:46.583Z,4.00
2022-10-13T20:09:14.232Z,10.00
2022-10-13T20:11:44.341Z,11.00
2022-10-13T20:14:12.012Z,11.00
2022-10-13T20:16:40.072Z,10.20
2022-10-13T20:19:08.318Z,5.60
2022-10-13T20:21:35.814Z,7.40
2022-10-13T20:24:03.578Z,6.40
2022-10-13T20:26:31.644Z,10.40
2022-10-13T20:28:59.655Z,9.20
2022-10-13T20:31:27.358Z,8.20
2022-10-13T20:33:57.034Z,5.80
2022-10-13T20:36:28.056Z,5.40
2022-10-13T20:38:55.960Z,6.60
2022-10-13T20:41:26.864Z,8.20
2022-10-13T20:43:56.791Z,6.40
2022-10-13T20:46:25.133Z,10.60
2022-10-13T20:49:11.422Z,3.00
2022-10-13T20:51:40.237Z,7.00
2022-10-13T20:54:08.155Z,7.00
2022-10-13T20:56:36.181Z,6.00
2022-10-13T20:59:06.420Z,8.20
2022-10-13T21:01:34.431Z,7.60
2022-10-13T21:04:01.890Z,10.20
2022-10-13T21:06:29.777Z,8.00
2022-10-13T21:09:00.922Z,2.60
2022-10-13T21:11:28.463Z,6.60
2022-10-13T21:13:56.281Z,7.40
2022-10-13T21:16:29.553Z,8.40
2022-10-13T21:18:58.241Z,9.00
2022-10-13T21:21:28.704Z,9.60
2022-10-13T21:24:01.232Z,0.40
2022-10-13T21:26:31.585Z,7.00
2022-10-13T21:28:59.846Z,2.00
2022-10-13T21:31:28.054Z,8.00
2022-10-13T21:33:56.186Z,4.20
2022-10-13T21:36:29.728Z,8.60
2022-10-13T21:39:00.174Z,9.20
2022-10-13T21:41:28.253Z,4.80
2022-10-13T21:43:56.436Z,2.60
2022-10-13T21:46:27.288Z,7.60
2022-10-13T21:48:59.954Z,6.00
2022-10-13T21:51:36.319Z,6.00
2022-10-13T21:54:16.396Z,7.00
2022-10-13T21:56:43.921Z,7.40
2022-10-13T21:59:13.392Z,5.60
2022-10-13T22:01:41.565Z,7.00
2022-10-13T22:04:13.492Z,8.00
2022-10-13T22:06:41.121Z,7.40
2022-10-13T22:09:08.674Z,7.20
2022-10-13T22:11:38.651Z,5.20
2022-10-13T22:14:12.154Z,7.20
2022-10-13T22:16:42.637Z,7.20
2022-10-13T22:19:10.973Z,4.00
2022-10-13T22:21:42.899Z,7.40
2022-10-13T22:24:14.374Z,6.20
2022-10-13T22:26:43.721Z,6.80
2022-10-13T22:29:14.692Z,5.20
2022-10-13T22:31:44.131Z,7.00
2022-10-13T22:34:13.286Z,6.80
2022-10-13T22:36:44.769Z,6.00
2022-10-13T22:39:13.877Z,2.00
2022-10-13T22:41:41.999Z,0.60
2022-10-13T22:44:09.742Z,6.20
2022-10-13T22:46:39.265Z,5.60
2022-10-13T22:49:08.173Z,6.00
2022-10-13T22:51:36.735Z,3.40
2022-10-13T22:54:05.382Z,7.40
2022-10-13T22:56:34.735Z,6.00
2022-10-13T22:59:05.833Z,4.40
2022-10-13T23:01:33.861Z,5.80
2022-10-13T23:04:01.614Z,3.80
2022-10-13T23:06:31.560Z,6.40
2022-10-13T23:09:05.720Z,6.00
2022-10-13T23:11:33.991Z,7.20
2022-10-13T23:14:02.643Z,4.40
2022-10-13T23:16:30.848Z,5.00
2022-10-13T23:18:58.342Z,5.00
2022-10-13T23:21:29.130Z,4.40
2022-10-13T23:24:05.174Z,6.80
2022-10-13T23:26:34.276Z,7.20
2022-10-13T23:29:02.100Z,9.00
2022-10-13T23:31:30.041Z,5.00
2022-10-13T23:33:58.890Z,5.60
2022-10-13T23:36:29.310Z,2.60
2022-10-13T23:38:58.820Z,6.00
2022-10-13T23:41:27.709Z,7.20
2022-10-13T23:43:55.480Z,2.60
2022-10-13T23:46:23.414Z,3.60
2022-10-13T23:48:51.243Z,0.60
2022-10-13T23:51:21.693Z,2.40
2022-10-13T23:53:49.297Z,4.40
2022-10-13T23:56:18.495Z,5.60
2022-10-13T23:58:46.588Z,4.40
